createdAt,value
2022-08-23T00:00:00.617Z,64.20
2022-08-23T00:02:38.344Z,64.30
2022-08-23T00:05:10.217Z,64.40
2022-08-23T00:07:39.464Z,64.40
2022-08-23T00:10:09.516Z,64.40
2022-08-23T00:12:37.418Z,64.70
2022-08-23T00:15:06.537Z,64.80
2022-08-23T00:17:35.510Z,64.90
2022-08-23T00:20:06.378Z,65.00
2022-08-23T00:22:36.370Z,65.00
2022-08-23T00:25:05.644Z,65.00
2022-08-23T00:27:33.813Z,64.90
2022-08-23T00:30:02.219Z,64.80
2022-08-23T00:32:33.973Z,64.80
2022-08-23T00:35:02.835Z,64.70
2022-08-23T00:37:33.072Z,65.00
2022-08-23T00:40:03.131Z,65.00
2022-08-23T00:42:53.407Z,65.20
2022-08-23T00:45:45.072Z,65.40
2022-08-23T00:48:14.200Z,65.50
2022-08-23T00:50:47.609Z,65.50
2022-08-23T00:53:19.006Z,65.60
2022-08-23T00:55:51.238Z,65.60
2022-08-23T00:58:21.438Z,65.70
2022-08-23T01:00:51.193Z,65.90
2022-08-23T01:03:20.998Z,66.10
2022-08-23T01:05:55.490Z,66.20
2022-08-23T01:08:26.806Z,66.20
2022-08-23T01:11:01.943Z,66.00
2022-08-23T01:13:41.411Z,65.90
2022-08-23T01:16:14.914Z,66.00
2022-08-23T01:18:44.445Z,66.20
2022-08-23T01:21:17.513Z,66.40
2022-08-23T01:23:49.808Z,66.60
2022-08-23T01:26:21.855Z,66.70
2022-08-23T01:28:50.364Z,67.00
2022-08-23T01:31:19.278Z,67.10
2022-08-23T01:33:51.016Z,67.20
2022-08-23T01:36:20.069Z,67.40
2022-08-23T01:38:50.139Z,67.70
2022-08-23T01:41:18.219Z,67.70
2022-08-23T01:43:46.279Z,67.70
2022-08-23T01:46:17.885Z,67.70
2022-08-23T01:48:46.951Z,67.80
2022-08-23T01:51:16.445Z,67.90
2022-08-23T01:53:46.416Z,67.90
2022-08-23T01:56:19.719Z,67.80
2022-08-23T01:58:55.271Z,67.80
2022-08-23T02:01:23.230Z,67.80
2022-08-23T02:04:05.213Z,67.90
2022-08-23T02:06:33.564Z,67.90
2022-08-23T02:09:04.500Z,68.00
2022-08-23T02:11:35.502Z,68.10
2022-08-23T02:14:05.498Z,68.20
2022-08-23T02:16:36.777Z,68.20
2022-08-23T02:19:06.521Z,68.30
2022-08-23T02:21:36.707Z,68.40
2022-08-23T02:24:06.260Z,68.50
2022-08-23T02:26:36.288Z,68.70
2022-08-23T02:29:05.634Z,68.80
2022-08-23T02:31:33.674Z,68.90
2022-08-23T02:34:03.104Z,68.90
2022-08-23T02:36:31.677Z,69.00
2022-08-23T02:39:00.195Z,69.10
2022-08-23T02:41:28.069Z,69.00
2022-08-23T02:43:57.244Z,69.00
2022-08-23T02:46:25.661Z,68.90
2022-08-23T02:48:53.685Z,68.90
2022-08-23T02:51:21.589Z,69.00
2022-08-23T02:53:57.094Z,69.10
2022-08-23T02:56:25.230Z,69.20
2022-08-23T02:58:54.506Z,69.30
2022-08-23T03:01:27.424Z,69.20
2022-08-23T03:03:55.589Z,69.10
2022-08-23T03:06:24.915Z,69.10
2022-08-23T03:08:54.142Z,69.30
2022-08-23T03:11:23.483Z,69.30
2022-08-23T03:13:53.142Z,69.50
2022-08-23T03:16:21.454Z,69.60
2022-08-23T03:18:51.656Z,69.70
2022-08-23T03:21:22.989Z,69.90
2022-08-23T03:23:50.941Z,69.90
2022-08-23T03:26:18.837Z,70.10
2022-08-23T03:28:48.053Z,70.10
2022-08-23T03:31:17.609Z,70.40
2022-08-23T03:33:46.564Z,70.30
2022-08-23T03:36:15.899Z,70.50
2022-08-23T03:38:45.232Z,70.40
2022-08-23T03:41:13.777Z,70.20
2022-08-23T03:43:41.715Z,70.10
2022-08-23T03:46:09.682Z,70.00
2022-08-23T03:48:39.002Z,70.00
2022-08-23T03:51:07.185Z,70.00
2022-08-23T03:53:36.379Z,70.10
2022-08-23T03:56:04.634Z,70.20
2022-08-23T03:58:32.506Z,70.30
2022-08-23T04:01:00.385Z,70.50
2022-08-23T04:03:28.272Z,70.60
2022-08-23T04:05:56.189Z,70.90
2022-08-23T04:08:31.903Z,71.00
2022-08-23T04:11:03.017Z,71.20
2022-08-23T04:13:31.237Z,71.40
2022-08-23T04:16:02.801Z,71.20
2022-08-23T04:18:31.627Z,71.10
2022-08-23T04:21:01.791Z,71.20
2022-08-23T04:23:29.730Z,71.40
2022-08-23T04:25:58.049Z,71.40
2022-08-23T04:28:28.253Z,72.30
2022-08-23T04:30:56.554Z,71.70
2022-08-23T04:33:24.965Z,71.70
2022-08-23T04:35:52.910Z,71.90
2022-08-23T04:38:25.197Z,71.80
2022-08-23T04:41:11.744Z,71.90
2022-08-23T04:43:41.171Z,72.00
2022-08-23T04:46:10.197Z,72.20
2022-08-23T04:48:38.346Z,72.50
2022-08-23T04:51:06.418Z,72.60
2022-08-23T04:53:35.331Z,72.90
2022-08-23T04:56:03.731Z,73.10
2022-08-23T04:58:33.158Z,73.20
2022-08-23T05:01:04.830Z,73.20
2022-08-23T05:03:32.893Z,73.50
2022-08-23T05:06:01.849Z,73.50
2022-08-23T05:08:29.757Z,74.30
2022-08-23T05:11:00.654Z,73.90
2022-08-23T05:13:28.560Z,74.10
2022-08-23T05:15:56.983Z,74.30
2022-08-23T05:18:28.029Z,75.10
2022-08-23T05:20:56.117Z,74.80
2022-08-23T05:23:32.162Z,75.00
2022-08-23T05:26:01.885Z,75.20
2022-08-23T05:28:31.862Z,75.50
2022-08-23T05:31:02.306Z,75.70
2022-08-23T05:33:32.505Z,75.80
2022-08-23T05:36:01.814Z,76.00
2022-08-23T05:38:29.978Z,76.20
2022-08-23T05:40:59.969Z,76.40
2022-08-23T05:43:28.025Z,76.60
2022-08-23T05:46:07.094Z,77.00
2022-08-23T05:48:46.829Z,77.20
2022-08-23T05:51:17.235Z,77.30
2022-08-23T05:53:45.566Z,77.30
2022-08-23T05:56:16.277Z,77.40
2022-08-23T05:58:44.815Z,77.40
2022-08-23T06:01:14.502Z,77.40
2022-08-23T06:03:44.120Z,77.60
2022-08-23T06:06:13.067Z,77.50
2022-08-23T06:08:41.465Z,77.60
2022-08-23T06:11:12.225Z,77.50
2022-08-23T06:13:42.803Z,77.40
2022-08-23T06:16:14.805Z,77.40
2022-08-23T06:18:45.358Z,77.40
2022-08-23T06:21:15.483Z,77.20
2022-08-23T06:23:44.124Z,77.10
2022-08-23T06:26:13.473Z,77.10
2022-08-23T06:28:50.398Z,76.90
2022-08-23T06:31:40.736Z,77.00
2022-08-23T06:34:11.996Z,76.80
2022-08-23T06:36:40.137Z,76.80
2022-08-23T06:39:10.677Z,76.80
2022-08-23T06:41:39.152Z,77.00
2022-08-23T06:44:08.081Z,76.90
2022-08-23T06:46:36.638Z,77.30
2022-08-23T06:49:05.789Z,77.00
2022-08-23T06:51:37.475Z,77.00
2022-08-23T06:54:08.688Z,77.60
2022-08-23T06:56:38.265Z,77.00
2022-08-23T06:59:08.166Z,77.00
2022-08-23T07:01:46.519Z,77.10
2022-08-23T07:04:19.517Z,77.30
2022-08-23T07:06:49.115Z,77.10
2022-08-23T07:09:18.557Z,77.20
2022-08-23T07:11:48.190Z,77.50
2022-08-23T07:14:18.091Z,77.50
2022-08-23T07:16:49.899Z,76.80
2022-08-23T07:19:20.439Z,77.30
2022-08-23T07:21:51.033Z,78.20
2022-08-23T07:24:19.532Z,77.60
2022-08-23T07:26:49.297Z,77.30
2022-08-23T07:29:17.982Z,77.50
2022-08-23T07:31:48.739Z,78.30
2022-08-23T07:34:17.059Z,78.00
2022-08-23T07:36:46.881Z,78.00
2022-08-23T07:39:17.834Z,77.90
2022-08-23T07:41:46.867Z,76.80
2022-08-23T07:44:18.123Z,77.30
2022-08-23T07:46:47.570Z,77.90
2022-08-23T07:49:16.318Z,77.40
2022-08-23T07:51:48.896Z,76.90
2022-08-23T07:54:19.540Z,76.80
2022-08-23T07:56:47.461Z,76.80
2022-08-23T07:59:15.741Z,76.50
2022-08-23T08:01:46.773Z,76.40
2022-08-23T08:04:14.766Z,76.60
2022-08-23T08:06:46.138Z,76.50
2022-08-23T08:09:15.297Z,76.40
2022-08-23T08:11:47.276Z,76.70
2022-08-23T08:14:17.151Z,76.10
2022-08-23T08:16:47.173Z,75.50
2022-08-23T08:19:19.976Z,76.50
2022-08-23T08:21:48.474Z,76.60
2022-08-23T08:24:17.611Z,76.90
2022-08-23T08:26:48.374Z,76.20
2022-08-23T08:29:16.473Z,76.00
2022-08-23T08:31:46.684Z,76.40
2022-08-23T08:34:14.961Z,75.50
2022-08-23T08:36:45.748Z,76.30
2022-08-23T08:39:15.911Z,76.00
2022-08-23T08:42:03.900Z,76.00
2022-08-23T08:44:39.091Z,75.10
2022-08-23T08:47:12.847Z,75.40
2022-08-23T08:49:46.003Z,74.50
2022-08-23T08:52:18.777Z,75.80
2022-08-23T08:54:49.892Z,74.90
2022-08-23T08:57:27.607Z,74.10
2022-08-23T09:00:01.658Z,73.30
2022-08-23T09:02:33.767Z,73.70
2022-08-23T09:05:03.896Z,74.50
2022-08-23T09:07:42.178Z,73.60
2022-08-23T09:10:26.546Z,72.80
2022-08-23T09:13:06.066Z,72.20
2022-08-23T09:15:42.569Z,71.90
2022-08-23T09:18:13.622Z,72.30
2022-08-23T09:20:43.318Z,72.30
2022-08-23T09:23:17.956Z,72.80
2022-08-23T09:25:53.383Z,72.70
2022-08-23T09:28:22.618Z,73.00
2022-08-23T09:30:54.858Z,72.50
2022-08-23T09:33:38.315Z,72.10
2022-08-23T09:36:24.063Z,71.50
2022-08-23T09:38:54.782Z,70.60
2022-08-23T09:41:28.305Z,70.30
2022-08-23T09:43:59.069Z,70.80
2022-08-23T09:46:30.393Z,71.40
2022-08-23T09:49:01.035Z,70.80
2022-08-23T09:51:35.941Z,70.00
2022-08-23T09:54:09.226Z,70.20
2022-08-23T09:56:40.442Z,69.80
2022-08-23T09:59:36.397Z,70.50
2022-08-23T10:02:05.136Z,70.30
2022-08-23T10:04:43.884Z,70.10
2022-08-23T10:07:28.327Z,69.40
2022-08-23T10:10:13.779Z,68.30
2022-08-23T10:12:41.846Z,67.90
2022-08-23T10:15:11.912Z,67.70
2022-08-23T10:17:47.241Z,68.00
2022-08-23T10:20:28.012Z,68.50
2022-08-23T10:23:04.823Z,68.10
2022-08-23T10:25:39.562Z,67.00
2022-08-23T10:28:35.775Z,67.50
2022-08-23T10:31:15.683Z,67.10
2022-08-23T10:33:51.076Z,66.80
2022-08-23T10:36:24.562Z,66.20
2022-08-23T10:38:57.808Z,65.20
2022-08-23T10:41:41.275Z,66.70
2022-08-23T10:44:25.911Z,65.20
2022-08-23T10:47:05.792Z,65.00
2022-08-23T10:49:37.371Z,65.00
2022-08-23T10:52:07.706Z,64.10
2022-08-23T10:54:46.602Z,64.30
2022-08-23T10:57:17.358Z,63.30
2022-08-23T10:59:47.625Z,61.40
2022-08-23T11:02:26.578Z,63.00
2022-08-23T11:05:00.645Z,62.40
2022-08-23T11:07:31.030Z,61.60
2022-08-23T11:10:16.789Z,60.40
2022-08-23T11:12:55.498Z,60.10
2022-08-23T11:15:32.991Z,59.80
2022-08-23T11:18:06.457Z,59.50
2022-08-23T11:21:05.720Z,58.80
2022-08-23T11:23:47.575Z,58.50
2022-08-23T11:27:06.730Z,58.90
2022-08-23T11:29:44.295Z,58.00
2022-08-23T11:32:41.614Z,57.70
2022-08-23T11:35:35.366Z,58.10
2022-08-23T11:38:06.689Z,58.40
2022-08-23T11:41:00.968Z,57.90
2022-08-23T11:43:34.441Z,57.70
2022-08-23T11:46:35.527Z,58.40
2022-08-23T11:49:14.673Z,57.40
2022-08-23T11:51:53.374Z,57.10
2022-08-23T11:54:52.948Z,57.80
2022-08-23T11:57:35.508Z,55.70
2022-08-23T12:00:14.850Z,55.70
2022-08-23T12:02:58.782Z,55.70
2022-08-23T12:05:42.327Z,54.00
2022-08-23T12:08:45.405Z,54.00
2022-08-23T12:11:18.365Z,53.40
2022-08-23T12:13:53.656Z,53.50
2022-08-23T12:16:38.422Z,53.70
2022-08-23T12:19:19.566Z,52.90
2022-08-23T12:21:50.091Z,53.00
2022-08-23T12:24:25.824Z,53.10
2022-08-23T12:27:01.233Z,52.10
2022-08-23T12:29:44.996Z,51.00
2022-08-23T12:32:21.646Z,52.20
2022-08-23T12:35:06.341Z,49.90
2022-08-23T12:37:41.632Z,49.70
2022-08-23T12:40:23.188Z,49.30
2022-08-23T12:42:51.509Z,49.30
2022-08-23T12:45:23.523Z,49.40
2022-08-23T12:47:57.499Z,49.80
2022-08-23T12:50:32.722Z,48.90
2022-08-23T12:53:04.391Z,49.50
2022-08-23T12:55:37.202Z,49.50
2022-08-23T12:58:06.317Z,50.10
2022-08-23T13:00:37.247Z,49.90
2022-08-23T13:03:13.319Z,50.10
2022-08-23T13:05:45.940Z,50.10
2022-08-23T13:08:21.029Z,48.60
2022-08-23T13:11:08.213Z,48.60
2022-08-23T13:13:39.801Z,48.10
2022-08-23T13:16:32.487Z,48.20
2022-08-23T13:19:16.846Z,47.90
2022-08-23T13:21:45.533Z,49.00
2022-08-23T13:24:38.375Z,49.10
2022-08-23T13:27:21.805Z,48.50
2022-08-23T13:29:55.240Z,48.20
2022-08-23T13:32:31.927Z,48.60
2022-08-23T13:35:26.944Z,48.20
2022-08-23T13:37:58.012Z,48.20
2022-08-23T13:40:30.781Z,47.80
2022-08-23T13:43:03.512Z,47.20
2022-08-23T13:45:33.680Z,47.00
2022-08-23T13:48:09.106Z,47.00
2022-08-23T13:50:39.074Z,46.50
2022-08-23T13:53:14.694Z,46.40
2022-08-23T13:55:46.882Z,46.20
2022-08-23T13:58:25.662Z,46.40
2022-08-23T14:00:55.233Z,46.30
2022-08-23T14:03:27.447Z,46.10
2022-08-23T14:05:55.906Z,46.00
2022-08-23T14:08:24.065Z,45.60
2022-08-23T14:10:52.175Z,45.50
2022-08-23T14:13:23.036Z,45.10
2022-08-23T14:16:32.287Z,45.20
2022-08-23T14:19:15.099Z,44.80
2022-08-23T14:21:27.340Z,44.80
2022-08-23T14:23:55.320Z,44.60
2022-08-23T14:26:23.371Z,44.70
2022-08-23T14:28:54.302Z,44.80
2022-08-23T14:31:22.405Z,44.90
2022-08-23T14:33:50.914Z,45.10
2022-08-23T14:36:18.846Z,44.80
2022-08-23T14:38:50.101Z,44.80
2022-08-23T14:41:21.252Z,44.60
2022-08-23T14:43:49.339Z,44.20
2022-08-23T14:46:19.103Z,44.40
2022-08-23T14:48:47.014Z,44.70
2022-08-23T14:51:24.591Z,44.80
2022-08-23T14:53:53.425Z,45.30
2022-08-23T14:56:22.002Z,44.70
2022-08-23T14:58:50.568Z,44.20
2022-08-23T15:01:21.181Z,44.00
2022-08-23T15:03:51.854Z,43.70
2022-08-23T15:06:21.745Z,43.90
2022-08-23T15:08:49.917Z,44.30
2022-08-23T15:14:06.189Z,44.60
2022-08-23T15:16:35.950Z,44.70
2022-08-23T15:19:04.883Z,44.90
2022-08-23T15:21:33.023Z,44.70
2022-08-23T15:24:01.070Z,45.00
2022-08-23T15:26:32.315Z,45.00
2022-08-23T15:29:00.921Z,44.60
2022-08-23T15:31:29.795Z,44.30
2022-08-23T15:33:59.097Z,44.50
2022-08-23T15:36:27.978Z,44.10
2022-08-23T15:38:55.870Z,44.10
2022-08-23T15:41:23.805Z,44.00
2022-08-23T15:43:51.945Z,44.30
2022-08-23T15:46:22.714Z,43.50
2022-08-23T15:48:55.525Z,43.90
2022-08-23T15:51:24.946Z,44.10
2022-08-23T15:53:53.369Z,44.10
2022-08-23T15:56:29.641Z,44.70
2022-08-23T15:58:57.960Z,44.90
2022-08-23T16:01:28.739Z,44.30
2022-08-23T16:03:56.987Z,44.00
2022-08-23T16:06:26.240Z,43.70
2022-08-23T16:08:54.195Z,44.00
2022-08-23T16:11:23.024Z,45.30
2022-08-23T16:13:53.664Z,45.30
2022-08-23T16:16:26.441Z,45.70
2022-08-23T16:18:55.331Z,45.80
2022-08-23T16:21:25.092Z,46.00
2022-08-23T16:23:55.129Z,46.70
2022-08-23T16:26:34.548Z,46.60
2022-08-23T16:29:04.594Z,46.60
2022-08-23T16:31:38.787Z,45.70
2022-08-23T16:34:09.833Z,45.80
2022-08-23T16:36:39.124Z,45.80
2022-08-23T16:39:09.554Z,45.60
2022-08-23T16:41:37.442Z,45.90
2022-08-23T16:44:06.100Z,46.10
2022-08-23T16:46:34.220Z,46.00
2022-08-23T16:49:02.360Z,45.30
2022-08-23T16:51:30.273Z,44.30
2022-08-23T16:54:02.543Z,44.00
2022-08-23T16:56:33.324Z,44.10
2022-08-23T16:59:01.256Z,44.00
2022-08-23T17:01:30.025Z,45.10
2022-08-23T17:03:57.998Z,46.40
2022-08-23T17:06:26.426Z,45.70
2022-08-23T17:08:54.308Z,46.10
2022-08-23T17:11:22.261Z,45.80
2022-08-23T17:13:52.491Z,46.20
2022-08-23T17:16:24.096Z,46.60
2022-08-23T17:18:56.892Z,46.60
2022-08-23T17:21:25.090Z,47.00
2022-08-23T17:23:53.309Z,46.90
2022-08-23T17:26:21.202Z,47.40
2022-08-23T17:28:49.311Z,47.40
2022-08-23T17:31:19.587Z,47.20
2022-08-23T17:33:47.593Z,47.40
2022-08-23T17:36:27.392Z,48.00
2022-08-23T17:38:56.218Z,47.70
2022-08-23T17:41:24.212Z,48.30
2022-08-23T17:43:52.174Z,48.30
2022-08-23T17:46:22.894Z,48.60
2022-08-23T17:48:50.944Z,48.90
2022-08-23T17:51:19.373Z,48.80
2022-08-23T17:53:47.761Z,48.90
2022-08-23T17:56:16.093Z,49.20
2022-08-23T17:58:43.958Z,49.50
2022-08-23T18:01:12.031Z,49.70
2022-08-23T18:03:41.642Z,50.00
2022-08-23T18:06:16.280Z,50.10
2022-08-23T18:08:44.944Z,50.10
2022-08-23T18:11:13.719Z,49.90
2022-08-23T18:13:41.764Z,49.70
2022-08-23T18:16:09.752Z,49.50
2022-08-23T18:18:37.851Z,49.80
2022-08-23T18:21:08.553Z,49.80
2022-08-23T18:23:37.114Z,49.70
2022-08-23T18:26:07.996Z,49.80
2022-08-23T18:28:35.181Z,49.80
2022-08-23T18:31:03.695Z,50.00
2022-08-23T18:33:46.983Z,50.30
2022-08-23T18:36:16.677Z,50.30
2022-08-23T18:38:44.581Z,50.50
2022-08-23T18:41:14.103Z,50.50
2022-08-23T18:43:42.036Z,50.20
2022-08-23T18:46:10.471Z,50.30
2022-08-23T18:48:39.207Z,50.60
2022-08-23T18:51:14.089Z,50.80
2022-08-23T18:53:47.587Z,51.00
2022-08-23T18:56:15.470Z,51.10
2022-08-23T18:58:43.840Z,51.30
2022-08-23T19:01:22.842Z,51.50
2022-08-23T19:03:51.090Z,51.70
2022-08-23T19:06:19.008Z,51.80
2022-08-23T19:08:48.914Z,51.80
2022-08-23T19:11:17.368Z,52.00
2022-08-23T19:13:45.292Z,52.30
2022-08-23T19:16:14.125Z,52.60
2022-08-23T19:18:42.215Z,52.60
2022-08-23T19:21:10.366Z,52.60
2022-08-23T19:23:38.610Z,52.50
2022-08-23T19:26:10.080Z,52.40
2022-08-23T19:28:38.229Z,52.20
2022-08-23T19:31:06.337Z,52.00
2022-08-23T19:33:34.963Z,52.00
2022-08-23T19:36:03.572Z,52.40
2022-08-23T19:38:31.890Z,52.50
2022-08-23T19:41:00.827Z,52.90
2022-08-23T19:43:31.628Z,53.20
2022-08-23T19:45:59.770Z,53.50
2022-08-23T19:48:27.769Z,53.70
2022-08-23T19:50:55.733Z,53.90
2022-08-23T19:53:23.557Z,54.00
2022-08-23T19:55:51.405Z,54.00
2022-08-23T19:58:20.994Z,54.20
2022-08-23T20:00:50.231Z,54.30
2022-08-23T20:03:18.243Z,54.50
2022-08-23T20:05:46.152Z,54.50
2022-08-23T20:08:14.088Z,54.80
2022-08-23T20:10:44.123Z,54.80
2022-08-23T20:13:12.709Z,54.70
2022-08-23T20:15:40.951Z,54.80
2022-08-23T20:18:10.592Z,54.90
2022-08-23T20:20:38.461Z,55.40
2022-08-23T20:23:24.086Z,55.80
2022-08-23T20:25:51.939Z,56.00
2022-08-23T20:28:24.428Z,56.00
2022-08-23T20:30:54.119Z,56.00
2022-08-23T20:33:23.520Z,55.80
2022-08-23T20:35:51.524Z,55.80
2022-08-23T20:38:26.405Z,55.50
2022-08-23T20:41:01.689Z,55.60
2022-08-23T20:43:32.679Z,55.60
2022-08-23T20:46:00.795Z,55.70
2022-08-23T20:48:30.814Z,56.10
2022-08-23T20:51:01.192Z,56.30
2022-08-23T20:53:29.738Z,56.30
2022-08-23T20:55:59.017Z,56.60
2022-08-23T20:58:27.933Z,56.40
2022-08-23T21:00:56.022Z,56.40
2022-08-23T21:03:24.663Z,56.50
2022-08-23T21:06:03.864Z,56.60
2022-08-23T21:08:32.247Z,56.70
2022-08-23T21:11:03.358Z,56.70
2022-08-23T21:13:31.241Z,56.70
2022-08-23T21:15:59.163Z,56.70
2022-08-23T21:18:27.426Z,57.10
2022-08-23T21:20:57.597Z,57.30
2022-08-23T21:23:25.766Z,57.50
2022-08-23T21:25:55.010Z,57.60
2022-08-23T21:28:23.719Z,57.70
2022-08-23T21:30:51.642Z,58.20
2022-08-23T21:33:21.746Z,58.20
2022-08-23T21:35:49.631Z,58.50
2022-08-23T21:38:19.829Z,58.60
2022-08-23T21:40:54.645Z,58.60
2022-08-23T21:43:22.535Z,58.60
2022-08-23T21:45:50.450Z,58.40
2022-08-23T21:48:18.359Z,58.40
2022-08-23T21:50:46.316Z,58.20
2022-08-23T21:53:14.394Z,58.10
2022-08-23T21:55:44.098Z,58.10
2022-08-23T21:58:14.829Z,58.20
2022-08-23T22:00:43.530Z,58.30
2022-08-23T22:03:12.136Z,58.40
2022-08-23T22:05:40.615Z,58.50
2022-08-23T22:08:08.527Z,58.50
2022-08-23T22:10:37.827Z,58.80
2022-08-23T22:13:07.820Z,58.90
2022-08-23T22:15:36.010Z,59.20
2022-08-23T22:18:05.404Z,59.50
2022-08-23T22:20:33.938Z,59.70
2022-08-23T22:23:02.487Z,60.00
2022-08-23T22:25:30.607Z,60.00
2022-08-23T22:27:58.507Z,60.00
2022-08-23T22:30:27.701Z,60.00
2022-08-23T22:32:55.627Z,59.90
2022-08-23T22:35:23.582Z,59.80
2022-08-23T22:38:12.266Z,59.80
2022-08-23T22:40:39.507Z,59.80
2022-08-23T22:43:07.459Z,59.80
2022-08-23T22:45:36.694Z,60.00
2022-08-23T22:48:04.907Z,60.20
2022-08-23T22:50:32.765Z,60.50
2022-08-23T22:53:00.609Z,60.70
2022-08-23T22:55:29.650Z,60.70
2022-08-23T22:57:57.540Z,60.70
2022-08-23T23:00:25.541Z,60.70
2022-08-23T23:02:57.370Z,60.60
2022-08-23T23:05:25.312Z,60.60
2022-08-23T23:08:10.911Z,60.50
2022-08-23T23:10:38.728Z,60.60
2022-08-23T23:13:06.632Z,60.80
2022-08-23T23:15:34.490Z,60.90
2022-08-23T23:18:04.409Z,61.10
2022-08-23T23:20:37.950Z,61.30
2022-08-23T23:23:06.362Z,61.40
2022-08-23T23:25:36.606Z,61.50
2022-08-23T23:28:06.023Z,61.60
2022-08-23T23:30:34.728Z,61.60
2022-08-23T23:33:04.491Z,61.80
2022-08-23T23:35:32.859Z,61.90
2022-08-23T23:38:00.857Z,61.90
2022-08-23T23:40:29.265Z,62.00
2022-08-23T23:42:57.594Z,62.60
2022-08-23T23:45:25.525Z,62.00
2022-08-23T23:47:53.455Z,62.10
2022-08-23T23:50:23.722Z,62.20
2022-08-23T23:52:51.922Z,62.50
2022-08-23T23:55:22.606Z,62.80
2022-08-23T23:57:50.766Z,62.90
